createdAt,value
2018-05-23T00:01:22.000Z,100324
2018-05-23T00:02:37.000Z,100321
2018-05-23T00:04:22.000Z,100313
2018-05-23T00:05:37.000Z,100315
2018-05-23T00:06:37.000Z,100312
2018-05-23T00:07:37.000Z,100311
2018-05-23T00:09:22.000Z,100319
2018-05-23T00:10:37.000Z,100315
2018-05-23T00:12:37.000Z,100325
2018-05-23T00:14:22.000Z,100319
2018-05-23T00:15:22.000Z,100328
2018-05-23T00:16:37.000Z,100329
2018-05-23T00:18:37.000Z,100330
2018-05-23T00:19:37.000Z,100330
2018-05-23T00:21:37.000Z,100333
2018-05-23T00:22:37.000Z,100335
2018-05-23T00:24:37.000Z,100342
2018-05-23T00:26:37.000Z,100339
2018-05-23T00:28:37.000Z,100334
2018-05-23T00:29:37.000Z,100338
2018-05-23T00:31:37.000Z,100341
2018-05-23T00:32:37.000Z,100344
2018-05-23T00:33:37.000Z,100339
2018-05-23T00:35:37.000Z,100339
2018-05-23T00:37:37.000Z,100336
2018-05-23T00:38:37.000Z,100337
2018-05-23T00:40:22.000Z,100340
2018-05-23T00:41:37.000Z,100337
2018-05-23T00:43:22.000Z,100339
2018-05-23T00:44:37.000Z,100333
2018-05-23T00:45:37.000Z,100333
2018-05-23T00:46:37.000Z,100329
2018-05-23T00:48:37.000Z,100329
2018-05-23T00:50:37.000Z,100335
2018-05-23T00:51:37.000Z,100327
2018-05-23T00:53:22.000Z,100328
2018-05-23T00:54:37.000Z,100330
2018-05-23T00:56:37.000Z,100330
2018-05-23T00:58:37.000Z,100335
2018-05-23T01:00:37.000Z,100337
2018-05-23T01:01:37.000Z,100334
2018-05-23T01:03:37.000Z,100335
2018-05-23T01:04:37.000Z,100331
2018-05-23T01:06:22.000Z,100334
2018-05-23T01:07:37.000Z,100337
2018-05-23T01:08:37.000Z,100338
2018-05-23T01:10:37.000Z,100333
2018-05-23T01:12:37.000Z,100337
2018-05-23T01:14:37.000Z,100335
2018-05-23T01:16:37.000Z,100340
2018-05-23T01:18:37.000Z,100334
2018-05-23T01:20:37.000Z,100336
2018-05-23T01:21:37.000Z,100339
2018-05-23T01:23:37.000Z,100337
2018-05-23T01:25:22.000Z,100341
2018-05-23T01:26:37.000Z,100345
2018-05-23T01:28:37.000Z,100340
2018-05-23T01:30:37.000Z,100340
2018-05-23T01:32:37.000Z,100342
2018-05-23T01:34:37.000Z,100336
2018-05-23T01:36:37.000Z,100343
2018-05-23T01:38:37.000Z,100336
2018-05-23T01:40:37.000Z,100335
2018-05-23T01:42:37.000Z,100334
2018-05-23T01:44:37.000Z,100334
2018-05-23T01:46:37.000Z,100337
2018-05-23T01:48:22.000Z,100334
2018-05-23T01:49:37.000Z,100335
2018-05-23T01:51:37.000Z,100337
2018-05-23T01:53:22.000Z,100338
2018-05-23T01:54:37.000Z,100335
2018-05-23T01:56:22.000Z,100343
2018-05-23T01:57:37.000Z,100342
2018-05-23T01:59:07.000Z,100340
2018-05-23T02:03:37.000Z,100337
2018-05-23T02:05:23.000Z,100340
2018-05-23T02:07:23.000Z,100335
2018-05-23T02:09:23.000Z,100334
2018-05-23T02:10:23.000Z,100332
2018-05-23T02:12:23.000Z,100342
2018-05-23T02:13:23.000Z,100338
2018-05-23T02:14:23.000Z,100342
2018-05-23T02:16:08.000Z,100340
2018-05-23T02:17:23.000Z,100341
2018-05-23T02:19:23.000Z,100341
2018-05-23T02:20:23.000Z,100343
2018-05-23T02:22:23.000Z,100346
2018-05-23T02:23:23.000Z,100346
2018-05-23T02:24:23.000Z,100343
2018-05-23T02:26:23.000Z,100342
2018-05-23T02:27:23.000Z,100346
2018-05-23T02:29:23.000Z,100347
2018-05-23T02:30:23.000Z,100345
2018-05-23T02:32:23.000Z,100345
2018-05-23T02:33:23.000Z,100345
2018-05-23T02:35:23.000Z,100340
2018-05-23T02:37:23.000Z,100345
2018-05-23T02:39:23.000Z,100336
2018-05-23T02:41:23.000Z,100340
2018-05-23T02:43:23.000Z,100343
2018-05-23T02:45:23.000Z,100342
2018-05-23T02:47:23.000Z,100347
2018-05-23T02:49:08.000Z,100349
2018-05-23T02:50:23.000Z,100353
2018-05-23T02:52:23.000Z,100353
2018-05-23T02:54:23.000Z,100359
2018-05-23T02:56:23.000Z,100358
2018-05-23T02:58:23.000Z,100360
2018-05-23T02:59:23.000Z,100359
2018-05-23T03:01:23.000Z,100359
2018-05-23T03:03:23.000Z,100358
2018-05-23T03:04:23.000Z,100359
2018-05-23T03:05:23.000Z,100365
2018-05-23T03:07:08.000Z,100362
2018-05-23T03:08:23.000Z,100364
2018-05-23T03:09:23.000Z,100363
2018-05-23T03:11:08.000Z,100365
2018-05-23T03:12:23.000Z,100365
2018-05-23T03:14:23.000Z,100368
2018-05-23T03:16:23.000Z,100370
2018-05-23T03:18:23.000Z,100371
2018-05-23T03:20:23.000Z,100368
2018-05-23T03:21:23.000Z,100373
2018-05-23T03:22:23.000Z,100373
2018-05-23T03:24:23.000Z,100374
2018-05-23T03:25:23.000Z,100374
2018-05-23T03:27:08.000Z,100373
2018-05-23T03:28:23.000Z,100374
2018-05-23T03:30:23.000Z,100378
2018-05-23T03:32:08.000Z,100374
2018-05-23T03:33:23.000Z,100375
2018-05-23T03:34:23.000Z,100376
2018-05-23T03:36:23.000Z,100374
2018-05-23T03:38:23.000Z,100386
2018-05-23T03:39:23.000Z,100377
2018-05-23T03:44:23.000Z,100381
2018-05-23T03:46:09.000Z,100377
2018-05-23T03:48:09.000Z,100378
2018-05-23T03:50:09.000Z,100376
2018-05-23T03:51:09.000Z,100384
2018-05-23T03:53:09.000Z,100384
2018-05-23T03:55:09.000Z,100391
2018-05-23T03:57:09.000Z,100389
2018-05-23T03:59:09.000Z,100390
2018-05-23T04:01:09.000Z,100387
2018-05-23T04:02:09.000Z,100391
2018-05-23T04:04:09.000Z,100390
2018-05-23T04:05:38.000Z,100392
2018-05-23T04:07:09.000Z,100388
2018-05-23T04:08:09.000Z,100392
2018-05-23T04:10:09.000Z,100392
2018-05-23T04:12:09.000Z,100396
2018-05-23T04:13:09.000Z,100392
2018-05-23T04:15:09.000Z,100395
2018-05-23T04:16:54.000Z,100399
2018-05-23T04:18:09.000Z,100398
2018-05-23T04:20:09.000Z,100404
2018-05-23T04:21:09.000Z,100405
2018-05-23T04:23:09.000Z,100411
2018-05-23T04:24:09.000Z,100412
2018-05-23T04:26:09.000Z,100415
2018-05-23T04:27:09.000Z,100419
2018-05-23T04:29:09.000Z,100419
2018-05-23T04:30:54.000Z,100417
2018-05-23T04:32:09.000Z,100420
2018-05-23T04:33:09.000Z,100421
2018-05-23T04:35:09.000Z,100425
2018-05-23T04:36:09.000Z,100424
2018-05-23T04:37:09.000Z,100431
2018-05-23T04:39:09.000Z,100433
2018-05-23T04:40:09.000Z,100431
2018-05-23T04:42:09.000Z,100439
2018-05-23T04:43:09.000Z,100440
2018-05-23T04:45:09.000Z,100443
2018-05-23T04:47:09.000Z,100443
2018-05-23T04:49:09.000Z,100445
2018-05-23T04:51:09.000Z,100447
2018-05-23T04:53:09.000Z,100443
2018-05-23T04:54:09.000Z,100447
2018-05-23T04:55:54.000Z,100454
2018-05-23T04:57:09.000Z,100454
2018-05-23T04:59:09.000Z,100455
2018-05-23T05:00:09.000Z,100457
2018-05-23T05:01:09.000Z,100460
2018-05-23T05:02:09.000Z,100458
2018-05-23T05:03:09.000Z,100458
2018-05-23T05:05:09.000Z,100465
2018-05-23T05:07:09.000Z,100465
2018-05-23T05:08:09.000Z,100464
2018-05-23T05:10:09.000Z,100468
2018-05-23T05:11:39.000Z,100465
2018-05-23T05:13:09.000Z,100471
2018-05-23T05:15:09.000Z,100477
2018-05-23T05:17:09.000Z,100478
2018-05-23T05:19:09.000Z,100483
2018-05-23T05:20:09.000Z,100486
2018-05-23T05:22:09.000Z,100487
2018-05-23T05:23:09.000Z,100490
2018-05-23T05:24:09.000Z,100487
2018-05-23T05:25:54.000Z,100490
2018-05-23T05:27:09.000Z,100492
2018-05-23T05:28:09.000Z,100496
2018-05-23T05:29:09.000Z,100495
2018-05-23T05:31:09.000Z,100496
2018-05-23T05:32:09.000Z,100505
2018-05-23T05:34:09.000Z,100510
2018-05-23T05:36:09.000Z,100513
2018-05-23T05:38:09.000Z,100515
2018-05-23T05:40:09.000Z,100521
2018-05-23T05:41:09.000Z,100523
2018-05-23T05:43:09.000Z,100524
2018-05-23T05:45:09.000Z,100524
2018-05-23T05:46:09.000Z,100526
2018-05-23T05:48:09.000Z,100526
2018-05-23T05:50:09.000Z,100528
2018-05-23T05:52:09.000Z,100531
2018-05-23T05:53:39.000Z,100532
2018-05-23T05:55:09.000Z,100537
2018-05-23T05:56:09.000Z,100537
2018-05-23T05:57:54.000Z,100538
2018-05-23T05:59:09.000Z,100539
2018-05-23T06:01:09.000Z,100541
2018-05-23T06:03:09.000Z,100544
2018-05-23T06:04:09.000Z,100546
2018-05-23T06:06:09.000Z,100551
2018-05-23T06:07:54.000Z,100550
2018-05-23T06:09:09.000Z,100557
2018-05-23T06:11:09.000Z,100556
2018-05-23T06:12:09.000Z,100558
2018-05-23T06:14:09.000Z,100562
2018-05-23T06:16:09.000Z,100569
2018-05-23T06:17:09.000Z,100568
2018-05-23T06:19:09.000Z,100570
2018-05-23T06:20:09.000Z,100569
2018-05-23T06:21:09.000Z,100570
2018-05-23T06:23:09.000Z,100571
2018-05-23T06:24:09.000Z,100577
2018-05-23T06:25:09.000Z,100581
2018-05-23T06:27:09.000Z,100577
2018-05-23T06:28:09.000Z,100576
2018-05-23T06:30:09.000Z,100569
2018-05-23T06:31:09.000Z,100569
2018-05-23T06:33:09.000Z,100575
2018-05-23T06:35:09.000Z,100574
2018-05-23T06:36:09.000Z,100578
2018-05-23T06:38:09.000Z,100575
2018-05-23T06:40:09.000Z,100588
2018-05-23T06:42:09.000Z,100588
2018-05-23T06:44:09.000Z,100592
2018-05-23T06:46:09.000Z,100586
2018-05-23T06:48:09.000Z,100586
2018-05-23T06:49:09.000Z,100590
2018-05-23T06:50:09.000Z,100586
2018-05-23T06:52:09.000Z,100586
2018-05-23T06:53:54.000Z,100588
2018-05-23T06:55:09.000Z,100584
2018-05-23T06:56:54.000Z,100588
2018-05-23T06:58:09.000Z,100595
2018-05-23T07:00:09.000Z,100588
2018-05-23T07:02:09.000Z,100585
2018-05-23T07:03:09.000Z,100587
2018-05-23T07:05:09.000Z,100587
2018-05-23T07:06:54.000Z,100591
2018-05-23T07:08:09.000Z,100593
2018-05-23T07:09:09.000Z,100589
2018-05-23T07:11:09.000Z,100596
2018-05-23T07:13:09.000Z,100595
2018-05-23T07:15:09.000Z,100595
2018-05-23T07:16:09.000Z,100595
2018-05-23T07:18:09.000Z,100592
2018-05-23T07:20:09.000Z,100594
2018-05-23T07:21:09.000Z,100590
2018-05-23T07:23:09.000Z,100599
2018-05-23T07:24:54.000Z,100593
2018-05-23T07:26:09.000Z,100597
2018-05-23T07:28:09.000Z,100596
2018-05-23T07:29:09.000Z,100599
2018-05-23T07:31:09.000Z,100600
2018-05-23T07:32:09.000Z,100603
2018-05-23T07:34:09.000Z,100603
2018-05-23T07:35:09.000Z,100606
2018-05-23T07:37:09.000Z,100611
2018-05-23T07:38:54.000Z,100614
2018-05-23T07:40:09.000Z,100606
2018-05-23T07:41:09.000Z,100610
2018-05-23T07:43:09.000Z,100612
2018-05-23T07:44:09.000Z,100609
2018-05-23T07:45:09.000Z,100615
2018-05-23T07:46:39.000Z,100610
2018-05-23T07:48:09.000Z,100608
2018-05-23T07:50:09.000Z,100606
2018-05-23T07:52:09.000Z,100607
2018-05-23T07:54:09.000Z,100607
2018-05-23T07:55:54.000Z,100609
2018-05-23T07:57:09.000Z,100611
2018-05-23T07:59:09.000Z,100610
2018-05-23T08:01:09.000Z,100609
2018-05-23T08:03:09.000Z,100615
2018-05-23T08:05:09.000Z,100614
2018-05-23T08:07:09.000Z,100622
2018-05-23T08:09:09.000Z,100615
2018-05-23T08:11:09.000Z,100611
2018-05-23T08:12:54.000Z,100612
2018-05-23T08:14:09.000Z,100612
2018-05-23T08:16:09.000Z,100617
2018-05-23T08:18:09.000Z,100616
2018-05-23T08:19:54.000Z,100620
2018-05-23T08:21:09.000Z,100622
2018-05-23T08:22:09.000Z,100624
2018-05-23T08:24:09.000Z,100627
2018-05-23T08:26:09.000Z,100630
2018-05-23T08:27:09.000Z,100627
2018-05-23T08:29:09.000Z,100627
2018-05-23T08:30:09.000Z,100630
2018-05-23T08:32:09.000Z,100626
2018-05-23T08:34:09.000Z,100635
2018-05-23T08:36:09.000Z,100637
2018-05-23T08:38:09.000Z,100637
2018-05-23T08:39:54.000Z,100640
2018-05-23T08:41:09.000Z,100642
2018-05-23T08:43:09.000Z,100646
2018-05-23T08:44:09.000Z,100645
2018-05-23T08:45:54.000Z,100641
2018-05-23T08:48:09.000Z,100646
2018-05-23T08:53:09.000Z,100658
2018-05-23T08:54:55.000Z,100651
2018-05-23T08:55:55.000Z,100655
2018-05-23T08:57:40.000Z,100658
2018-05-23T08:58:55.000Z,100653
2018-05-23T09:00:40.000Z,100657
2018-05-23T09:02:55.000Z,100661
2018-05-23T09:04:40.000Z,100669
2018-05-23T09:05:55.000Z,100669
2018-05-23T09:07:55.000Z,100677
2018-05-23T09:08:55.000Z,100671
2018-05-23T09:09:55.000Z,100674
2018-05-23T09:11:40.000Z,100671
2018-05-23T09:13:55.000Z,100677
2018-05-23T09:15:55.000Z,100679
2018-05-23T09:16:55.000Z,100679
2018-05-23T09:17:55.000Z,100680
2018-05-23T09:19:55.000Z,100681
2018-05-23T09:21:40.000Z,100687
2018-05-23T09:22:55.000Z,100682
2018-05-23T09:23:55.000Z,100688
2018-05-23T09:25:40.000Z,100687
2018-05-23T09:26:55.000Z,100694
2018-05-23T09:27:55.000Z,100687
2018-05-23T09:29:55.000Z,100699
2018-05-23T09:31:55.000Z,100694
2018-05-23T09:32:55.000Z,100700
2018-05-23T09:34:55.000Z,100701
2018-05-23T09:36:40.000Z,100701
2018-05-23T09:37:55.000Z,100699
2018-05-23T09:39:55.000Z,100704
2018-05-23T09:41:55.000Z,100713
2018-05-23T09:42:55.000Z,100717
2018-05-23T09:44:55.000Z,100714
2018-05-23T09:46:55.000Z,100715
2018-05-23T09:47:55.000Z,100718
2018-05-23T09:49:56.000Z,100713
2018-05-23T09:51:56.000Z,100716
2018-05-23T09:52:56.000Z,100712
2018-05-23T09:54:56.000Z,100713
2018-05-23T09:56:56.000Z,100712
2018-05-23T09:58:55.000Z,100704
2018-05-23T09:59:56.000Z,100712
2018-05-23T10:01:56.000Z,100713
2018-05-23T10:02:56.000Z,100719
2018-05-23T10:04:25.000Z,100720
2018-05-23T10:05:56.000Z,100716
2018-05-23T10:06:56.000Z,100722
2018-05-23T10:08:56.000Z,100721
2018-05-23T10:10:56.000Z,100733
2018-05-23T10:11:56.000Z,100729
2018-05-23T10:13:56.000Z,100738
2018-05-23T10:14:56.000Z,100737
2018-05-23T10:15:56.000Z,100732
2018-05-23T10:17:40.000Z,100736
2018-05-23T10:18:56.000Z,100736
2018-05-23T10:20:55.000Z,100738
2018-05-23T10:21:56.000Z,100732
2018-05-23T10:23:56.000Z,100735
2018-05-23T10:24:56.000Z,100738
2018-05-23T10:26:56.000Z,100738
2018-05-23T10:27:56.000Z,100747
2018-05-23T10:29:56.000Z,100745
2018-05-23T10:31:56.000Z,100750
2018-05-23T10:33:56.000Z,100747
2018-05-23T10:35:56.000Z,100750
2018-05-23T10:37:56.000Z,100752
2018-05-23T10:39:56.000Z,100752
2018-05-23T10:40:56.000Z,100752
2018-05-23T10:42:56.000Z,100752
2018-05-23T10:44:56.000Z,100755
2018-05-23T10:46:40.000Z,100759
2018-05-23T10:47:56.000Z,100754
2018-05-23T10:49:56.000Z,100758
2018-05-23T10:51:56.000Z,100755
2018-05-23T10:53:56.000Z,100755
2018-05-23T10:55:55.000Z,100758
2018-05-23T10:56:55.000Z,100763
2018-05-23T10:58:56.000Z,100764
2018-05-23T11:00:55.000Z,100766
2018-05-23T11:02:55.000Z,100768
2018-05-23T11:04:55.000Z,100768
2018-05-23T11:06:55.000Z,100768
2018-05-23T11:07:56.000Z,100771
2018-05-23T11:09:55.000Z,100770
2018-05-23T11:10:55.000Z,100772
2018-05-23T11:11:55.000Z,100774
2018-05-23T11:13:40.000Z,100771
2018-05-23T11:14:55.000Z,100774
2018-05-23T11:16:40.000Z,100772
2018-05-23T11:17:55.000Z,100773
2018-05-23T11:18:55.000Z,100773
2018-05-23T11:20:55.000Z,100774
2018-05-23T11:22:40.000Z,100777
2018-05-23T11:23:55.000Z,100774
2018-05-23T11:25:55.000Z,100779
2018-05-23T11:27:55.000Z,100776
2018-05-23T11:29:55.000Z,100776
2018-05-23T11:30:55.000Z,100775
2018-05-23T11:32:55.000Z,100775
2018-05-23T11:34:55.000Z,100776
2018-05-23T11:35:55.000Z,100777
2018-05-23T11:37:55.000Z,100777
2018-05-23T11:38:55.000Z,100779
2018-05-23T11:40:55.000Z,100781
2018-05-23T11:42:55.000Z,100781
2018-05-23T11:44:55.000Z,100777
2018-05-23T11:46:55.000Z,100777
2018-05-23T11:47:55.000Z,100781
2018-05-23T11:49:55.000Z,100772
2018-05-23T11:51:55.000Z,100771
2018-05-23T11:53:55.000Z,100772
2018-05-23T11:54:55.000Z,100776
2018-05-23T11:56:56.000Z,100775
2018-05-23T11:57:56.000Z,100779
2018-05-23T11:58:56.000Z,100771
2018-05-23T12:00:55.000Z,100774
2018-05-23T12:02:55.000Z,100770
2018-05-23T12:03:56.000Z,100776
2018-05-23T12:05:56.000Z,100778
2018-05-23T12:07:56.000Z,100776
2018-05-23T12:09:56.000Z,100779
2018-05-23T12:11:56.000Z,100777
2018-05-23T12:13:55.000Z,100779
2018-05-23T12:14:56.000Z,100780
2018-05-23T12:16:55.000Z,100774
2018-05-23T12:17:56.000Z,100778
2018-05-23T12:19:56.000Z,100778
2018-05-23T12:21:56.000Z,100783
2018-05-23T12:23:40.000Z,100781
2018-05-23T12:24:56.000Z,100784
2018-05-23T12:26:55.000Z,100784
2018-05-23T12:27:56.000Z,100780
2018-05-23T12:29:55.000Z,100784
2018-05-23T12:30:56.000Z,100781
2018-05-23T12:32:56.000Z,100787
2018-05-23T12:34:55.000Z,100791
2018-05-23T12:36:56.000Z,100786
2018-05-23T12:38:55.000Z,100780
2018-05-23T12:40:55.000Z,100774
2018-05-23T12:42:55.000Z,100781
2018-05-23T12:44:55.000Z,100774
2018-05-23T12:45:55.000Z,100779
2018-05-23T12:47:55.000Z,100774
2018-05-23T12:49:54.000Z,100773
2018-05-23T12:50:54.000Z,100770
2018-05-23T12:51:54.000Z,100769
2018-05-23T12:53:54.000Z,100767
2018-05-23T12:54:54.000Z,100767
2018-05-23T12:56:54.000Z,100765
2018-05-23T12:58:24.000Z,100761
2018-05-23T12:59:54.000Z,100764
2018-05-23T13:00:56.000Z,100767
2018-05-23T13:02:56.000Z,100758
2018-05-23T13:03:56.000Z,100763
2018-05-23T13:05:56.000Z,100759
2018-05-23T13:07:56.000Z,100758
2018-05-23T13:09:56.000Z,100753
2018-05-23T13:10:56.000Z,100760
2018-05-23T13:12:56.000Z,100760
2018-05-23T13:14:56.000Z,100759
2018-05-23T13:16:56.000Z,100756
2018-05-23T13:18:56.000Z,100746
2018-05-23T13:20:56.000Z,100751
2018-05-23T13:21:56.000Z,100746
2018-05-23T13:23:56.000Z,100751
2018-05-23T13:24:56.000Z,100754
2018-05-23T13:26:56.000Z,100747
2018-05-23T13:27:56.000Z,100745
2018-05-23T13:29:40.000Z,100748
2018-05-23T13:30:56.000Z,100745
2018-05-23T13:32:56.000Z,100753
2018-05-23T13:34:56.000Z,100743
2018-05-23T13:35:56.000Z,100741
2018-05-23T13:37:56.000Z,100738
2018-05-23T13:39:56.000Z,100741
2018-05-23T13:41:56.000Z,100732
2018-05-23T13:43:56.000Z,100730
2018-05-23T13:45:56.000Z,100725
2018-05-23T13:47:56.000Z,100726
2018-05-23T13:49:40.000Z,100725
2018-05-23T13:50:56.000Z,100721
2018-05-23T13:51:56.000Z,100717
2018-05-23T13:53:56.000Z,100713
2018-05-23T13:54:56.000Z,100719
2018-05-23T13:56:56.000Z,100709
2018-05-23T13:57:56.000Z,100710
2018-05-23T13:59:40.000Z,100705
2018-05-23T14:00:56.000Z,100710
2018-05-23T14:01:56.000Z,100708
2018-05-23T14:03:56.000Z,100711
2018-05-23T14:04:55.000Z,100707
2018-05-23T14:05:55.000Z,100708
2018-05-23T14:06:55.000Z,100709
2018-05-23T14:08:55.000Z,100706
2018-05-23T14:10:55.000Z,100700
2018-05-23T14:12:55.000Z,100691
2018-05-23T14:14:55.000Z,100693
2018-05-23T14:15:55.000Z,100694
2018-05-23T14:16:55.000Z,100691
2018-05-23T14:18:55.000Z,100693
2018-05-23T14:19:55.000Z,100692
2018-05-23T14:21:40.000Z,100691
2018-05-23T14:22:55.000Z,100694
2018-05-23T14:24:55.000Z,100695
2018-05-23T14:26:55.000Z,100695
2018-05-23T14:28:55.000Z,100687
2018-05-23T14:30:55.000Z,100685
2018-05-23T14:31:55.000Z,100691
2018-05-23T14:33:55.000Z,100679
2018-05-23T14:35:55.000Z,100684
2018-05-23T14:37:25.000Z,100681
2018-05-23T14:38:55.000Z,100677
2018-05-23T14:40:55.000Z,100687
2018-05-23T14:42:55.000Z,100695
2018-05-23T14:44:55.000Z,100692
2018-05-23T14:45:55.000Z,100690
2018-05-23T14:47:40.000Z,100679
2018-05-23T14:48:55.000Z,100683
2018-05-23T14:49:55.000Z,100677
2018-05-23T14:51:55.000Z,100684
2018-05-23T14:52:55.000Z,100690
2018-05-23T14:53:55.000Z,100684
2018-05-23T14:55:55.000Z,100681
2018-05-23T14:56:55.000Z,100683
2018-05-23T14:58:55.000Z,100669
2018-05-23T14:59:55.000Z,100676
2018-05-23T15:00:55.000Z,100681
2018-05-23T15:04:02.000Z,100681
2018-05-23T15:05:33.000Z,100677
2018-05-23T15:06:48.000Z,100683
2018-05-23T15:08:34.000Z,100673
2018-05-23T15:09:49.000Z,100678
2018-05-23T15:11:49.000Z,100665
2018-05-23T15:13:34.000Z,100672
2018-05-23T15:14:49.000Z,100675
2018-05-23T15:16:49.000Z,100663
2018-05-23T15:18:34.000Z,100662
2018-05-23T15:19:49.000Z,100665
2018-05-23T15:21:49.000Z,100671
2018-05-23T15:23:49.000Z,100669
2018-05-23T15:25:49.000Z,100668
2018-05-23T15:27:34.000Z,100668
2018-05-23T15:28:49.000Z,100668
2018-05-23T15:29:49.000Z,100664
2018-05-23T15:31:49.000Z,100667
2018-05-23T15:33:49.000Z,100666
2018-05-23T15:35:49.000Z,100666
2018-05-23T15:37:49.000Z,100665
2018-05-23T15:38:49.000Z,100668
2018-05-23T15:40:49.000Z,100664
2018-05-23T15:41:49.000Z,100664
2018-05-23T15:42:49.000Z,100663
2018-05-23T15:44:49.000Z,100667
2018-05-23T15:46:49.000Z,100661
2018-05-23T15:48:49.000Z,100660
2018-05-23T15:50:34.000Z,100661
2018-05-23T15:51:49.000Z,100660
2018-05-23T15:56:49.000Z,100661
2018-05-23T15:58:35.000Z,100660
2018-05-23T15:59:35.000Z,100670
2018-05-23T16:01:35.000Z,100663
2018-05-23T16:03:35.000Z,100663
2018-05-23T16:05:35.000Z,100670
2018-05-23T16:06:35.000Z,100654
2018-05-23T16:08:35.000Z,100664
2018-05-23T16:10:35.000Z,100669
2018-05-23T16:12:20.000Z,100668
2018-05-23T16:13:35.000Z,100659
2018-05-23T16:14:35.000Z,100669
2018-05-23T16:16:35.000Z,100666
2018-05-23T16:17:35.000Z,100673
2018-05-23T16:18:35.000Z,100663
2018-05-23T16:20:35.000Z,100665
2018-05-23T16:22:35.000Z,100657
2018-05-23T16:24:35.000Z,100658
2018-05-23T16:25:35.000Z,100655
2018-05-23T16:27:35.000Z,100652
2018-05-23T16:28:35.000Z,100653
2018-05-23T16:30:35.000Z,100659
2018-05-23T16:32:20.000Z,100650
2018-05-23T16:33:35.000Z,100651
2018-05-23T16:35:35.000Z,100655
2018-05-23T16:36:35.000Z,100655
2018-05-23T16:38:35.000Z,100650
2018-05-23T16:40:35.000Z,100652
2018-05-23T16:42:35.000Z,100664
2018-05-23T16:43:35.000Z,100654
2018-05-23T16:45:35.000Z,100649
2018-05-23T16:46:35.000Z,100655
2018-05-23T16:48:35.000Z,100653
2018-05-23T16:49:35.000Z,100648
2018-05-23T16:51:35.000Z,100647
2018-05-23T16:53:35.000Z,100650
2018-05-23T16:55:35.000Z,100646
2018-05-23T16:57:35.000Z,100648
2018-05-23T16:59:35.000Z,100646
2018-05-23T17:01:35.000Z,100647
2018-05-23T17:02:35.000Z,100646
2018-05-23T17:04:35.000Z,100653
2018-05-23T17:05:35.000Z,100649
2018-05-23T17:07:35.000Z,100655
2018-05-23T17:09:35.000Z,100651
2018-05-23T17:11:35.000Z,100656
2018-05-23T17:13:35.000Z,100651
2018-05-23T17:14:35.000Z,100653
2018-05-23T17:16:34.000Z,100656
2018-05-23T17:18:34.000Z,100655
2018-05-23T17:19:34.000Z,100664
2018-05-23T17:21:34.000Z,100672
2018-05-23T17:23:34.000Z,100674
2018-05-23T17:25:34.000Z,100678
2018-05-23T17:27:34.000Z,100672
2018-05-23T17:28:34.000Z,100677
2018-05-23T17:30:34.000Z,100676
2018-05-23T17:32:34.000Z,100680
2018-05-23T17:34:34.000Z,100685
2018-05-23T17:35:34.000Z,100681
2018-05-23T17:37:34.000Z,100686
2018-05-23T17:39:34.000Z,100683
2018-05-23T17:41:34.000Z,100687
2018-05-23T17:43:34.000Z,100680
2018-05-23T17:44:34.000Z,100685
2018-05-23T17:46:19.000Z,100685
2018-05-23T17:47:34.000Z,100677
2018-05-23T17:48:34.000Z,100683
2018-05-23T17:50:34.000Z,100683
2018-05-23T17:52:34.000Z,100685
2018-05-23T17:53:34.000Z,100675
2018-05-23T17:55:34.000Z,100685
2018-05-23T17:57:34.000Z,100681
2018-05-23T17:58:34.000Z,100678
2018-05-23T18:00:34.000Z,100682
2018-05-23T18:01:34.000Z,100681
2018-05-23T18:02:34.000Z,100676
2018-05-23T18:03:34.000Z,100679
2018-05-23T18:05:19.000Z,100676
2018-05-23T18:06:34.000Z,100671
2018-05-23T18:08:34.000Z,100679
2018-05-23T18:10:34.000Z,100678
2018-05-23T18:12:34.000Z,100683
2018-05-23T18:13:34.000Z,100676
2018-05-23T18:15:34.000Z,100679
2018-05-23T18:17:34.000Z,100685
2018-05-23T18:19:34.000Z,100682
2018-05-23T18:21:19.000Z,100685
2018-05-23T18:22:34.000Z,100681
2018-05-23T18:24:34.000Z,100680
2018-05-23T18:26:34.000Z,100681
2018-05-23T18:28:34.000Z,100686
2018-05-23T18:29:34.000Z,100683
2018-05-23T18:31:34.000Z,100687
2018-05-23T18:33:34.000Z,100685
2018-05-23T18:35:34.000Z,100686
2018-05-23T18:37:34.000Z,100691
2018-05-23T18:39:34.000Z,100692
2018-05-23T18:41:34.000Z,100696
2018-05-23T18:43:19.000Z,100699
2018-05-23T18:44:34.000Z,100702
2018-05-23T18:46:34.000Z,100703
2018-05-23T18:48:34.000Z,100702
2018-05-23T18:50:34.000Z,100705
2018-05-23T18:52:34.000Z,100709
2018-05-23T18:53:34.000Z,100708
2018-05-23T18:55:34.000Z,100713
2018-05-23T18:56:34.000Z,100712
2018-05-23T18:58:34.000Z,100713
2018-05-23T19:00:19.000Z,100712
2018-05-23T19:01:34.000Z,100713
2018-05-23T19:02:34.000Z,100709
2018-05-23T19:04:19.000Z,100710
2018-05-23T19:05:34.000Z,100704
2018-05-23T19:06:34.000Z,100706
2018-05-23T19:08:34.000Z,100708
2018-05-23T19:10:19.000Z,100708
2018-05-23T19:12:34.000Z,100711
2018-05-23T19:13:34.000Z,100712
2018-05-23T19:14:34.000Z,100708
2018-05-23T19:16:19.000Z,100714
2018-05-23T19:17:34.000Z,100709
2018-05-23T19:18:34.000Z,100707
2018-05-23T19:20:34.000Z,100713
2018-05-23T19:21:34.000Z,100717
2018-05-23T19:23:35.000Z,100718
2018-05-23T19:25:35.000Z,100719
2018-05-23T19:26:35.000Z,100715
2018-05-23T19:27:35.000Z,100717
2018-05-23T19:29:04.000Z,100729
2018-05-23T19:30:35.000Z,100725
2018-05-23T19:31:35.000Z,100723
2018-05-23T19:33:20.000Z,100730
2018-05-23T19:34:35.000Z,100732
2018-05-23T19:35:35.000Z,100737
2018-05-23T19:37:35.000Z,100734
2018-05-23T19:38:35.000Z,100740
2018-05-23T19:39:35.000Z,100740
2018-05-23T19:41:35.000Z,100746
2018-05-23T19:43:35.000Z,100743
2018-05-23T19:45:35.000Z,100744
2018-05-23T19:46:35.000Z,100749
2018-05-23T19:47:35.000Z,100750
2018-05-23T19:49:35.000Z,100753
2018-05-23T19:50:35.000Z,100750
2018-05-23T19:52:35.000Z,100756
2018-05-23T19:54:35.000Z,100759
2018-05-23T19:56:20.000Z,100760
2018-05-23T19:57:35.000Z,100763
2018-05-23T19:59:20.000Z,100771
2018-05-23T20:00:35.000Z,100764
2018-05-23T20:02:35.000Z,100775
2018-05-23T20:04:35.000Z,100779
2018-05-23T20:06:20.000Z,100781
2018-05-23T20:07:35.000Z,100779
2018-05-23T20:08:35.000Z,100777
2018-05-23T20:10:35.000Z,100786
2018-05-23T20:12:20.000Z,100788
2018-05-23T20:13:35.000Z,100790
2018-05-23T20:15:20.000Z,100791
2018-05-23T20:16:35.000Z,100793
2018-05-23T20:18:20.000Z,100751
2018-05-23T20:20:20.000Z,100792
2018-05-23T20:21:35.000Z,100791
2018-05-23T20:23:35.000Z,100787
2018-05-23T20:25:20.000Z,100754
2018-05-23T20:26:35.000Z,100790